sensor_id;sensor_type;location;lat;lon;timestamp;P1;durP1;ratioP1;P2;durP2;ratioP2
21562;SDS011;10942;47.894;11.424;2024-03-23T00:55:12;5.25;;;3.20;;
21562;SDS011;10942;47.894;11.424;2024-03-23T00:57:38;8.10;;;2.70;;
21562;SDS011;10942;47.894;11.424;2024-03-23T01:00:04;6.20;;;3.47;;
21562;SDS011;10942;47.894;11.424;2024-03-23T01:02:31;9.68;;;4.82;;
21562;SDS011;10942;47.894;11.424;2024-03-23T01:04:57;11.65;;;6.43;;
21562;SDS011;10942;47.894;11.424;2024-03-23T01:07:23;4.90;;;3.25;;
21562;SDS011;10942;47.894;11.424;2024-03-23T01:09:49;5.22;;;3.20;;
21562;SDS011;10942;47.894;11.424;2024-03-23T01:12:17;5.43;;;3.47;;
21562;SDS011;10942;47.894;11.424;2024-03-23T01:14:42;5.03;;;3.00;;
21562;SDS011;10942;47.894;11.424;2024-03-23T01:17:09;5.78;;;3.08;;
21562;SDS011;10942;47.894;11.424;2024-03-23T01:19:34;5.32;;;2.63;;
21562;SDS011;10942;47.894;11.424;2024-03-23T01:22:00;7.57;;;4.22;;
21562;SDS011;10942;47.894;11.424;2024-03-23T01:24:26;7.30;;;4.00;;
21562;SDS011;10942;47.894;11.424;2024-03-23T01:26:51;5.78;;;2.88;;
21562;SDS011;10942;47.894;11.424;2024-03-23T01:29:17;7.30;;;3.70;;
21562;SDS011;10942;47.894;11.424;2024-03-23T01:31:42;6.00;;;3.33;;
21562;SDS011;10942;47.894;11.424;2024-03-23T01:34:08;6.18;;;3.40;;
21562;SDS011;10942;47.894;11.424;2024-03-23T01:36:34;4.90;;;2.67;;
21562;SDS011;10942;47.894;11.424;2024-03-23T01:38:59;3.38;;;2.25;;
21562;SDS011;10942;47.894;11.424;2024-03-23T01:41:25;5.68;;;3.35;;
21562;SDS011;10942;47.894;11.424;2024-03-23T01:43:51;7.47;;;3.88;;
21562;SDS011;10942;47.894;11.424;2024-03-23T01:46:16;9.65;;;4.30;;
21562;SDS011;10942;47.894;11.424;2024-03-23T01:48:42;8.35;;;4.65;;
21562;SDS011;10942;47.894;11.424;2024-03-23T01:51:08;5.85;;;2.78;;
21562;SDS011;10942;47.894;11.424;2024-03-23T01:53:34;5.45;;;2.90;;
21562;SDS011;10942;47.894;11.424;2024-03-23T01:56:00;8.77;;;4.93;;
21562;SDS011;10942;47.894;11.424;2024-03-23T01:58:27;7.40;;;4.28;;
21562;SDS011;10942;47.894;11.424;2024-03-23T02:00:53;7.93;;;4.88;;
21562;SDS011;10942;47.894;11.424;2024-03-23T02:03:25;8.50;;;4.32;;
21562;SDS011;10942;47.894;11.424;2024-03-23T02:05:52;6.35;;;2.65;;
21562;SDS011;10942;47.894;11.424;2024-03-23T02:08:20;6.47;;;3.72;;
21562;SDS011;10942;47.894;11.424;2024-03-23T02:10:47;5.13;;;2.78;;
21562;SDS011;10942;47.894;11.424;2024-03-23T02:13:14;6.90;;;3.45;;
21562;SDS011;10942;47.894;11.424;2024-03-23T02:15:41;7.10;;;3.95;;
21562;SDS011;10942;47.894;11.424;2024-03-23T02:18:07;6.88;;;4.10;;
21562;SDS011;10942;47.894;11.424;2024-03-23T02:20:34;5.82;;;3.67;;
21562;SDS011;10942;47.894;11.424;2024-03-23T02:23:00;7.47;;;4.25;;
21562;SDS011;10942;47.894;11.424;2024-03-23T02:25:25;7.07;;;3.85;;
21562;SDS011;10942;47.894;11.424;2024-03-23T02:27:51;5.10;;;2.97;;
21562;SDS011;10942;47.894;11.424;2024-03-23T02:30:19;5.07;;;3.25;;
21562;SDS011;10942;47.894;11.424;2024-03-23T02:32:45;6.95;;;3.55;;
21562;SDS011;10942;47.894;11.424;2024-03-23T02:35:11;8.02;;;3.13;;
21562;SDS011;10942;47.894;11.424;2024-03-23T02:37:37;4.78;;;2.28;;
21562;SDS011;10942;47.894;11.424;2024-03-23T02:40:03;6.22;;;2.80;;
21562;SDS011;10942;47.894;11.424;2024-03-23T02:42:30;4.93;;;2.50;;
21562;SDS011;10942;47.894;11.424;2024-03-23T02:44:55;4.65;;;2.47;;
21562;SDS011;10942;47.894;11.424;2024-03-23T02:47:21;5.05;;;2.60;;
21562;SDS011;10942;47.894;11.424;2024-03-23T02:49:47;4.40;;;2.33;;
21562;SDS011;10942;47.894;11.424;2024-03-23T02:52:13;7.88;;;4.47;;
21562;SDS011;10942;47.894;11.424;2024-03-23T02:54:39;6.13;;;3.35;;
21562;SDS011;10942;47.894;11.424;2024-03-23T02:57:07;5.35;;;2.15;;
21562;SDS011;10942;47.894;11.424;2024-03-23T02:59:32;5.97;;;2.00;;
21562;SDS011;10942;47.894;11.424;2024-03-23T03:01:58;9.77;;;4.93;;
21562;SDS011;10942;47.894;11.424;2024-03-23T03:04:25;3.63;;;1.98;;
21562;SDS011;10942;47.894;11.424;2024-03-23T03:06:51;6.60;;;3.05;;
21562;SDS011;10942;47.894;11.424;2024-03-23T03:09:16;3.88;;;2.38;;
21562;SDS011;10942;47.894;11.424;2024-03-23T03:11:42;2.65;;;1.67;;
21562;SDS011;10942;47.894;11.424;2024-03-23T03:14:08;8.07;;;4.40;;
21562;SDS011;10942;47.894;11.424;2024-03-23T03:16:34;5.97;;;3.08;;
21562;SDS011;10942;47.894;11.424;2024-03-23T03:19:00;7.60;;;3.97;;
21562;SDS011;10942;47.894;11.424;2024-03-23T03:21:26;6.13;;;3.40;;
21562;SDS011;10942;47.894;11.424;2024-03-23T03:23:53;5.32;;;2.08;;
21562;SDS011;10942;47.894;11.424;2024-03-23T03:26:21;4.53;;;2.92;;
21562;SDS011;10942;47.894;11.424;2024-03-23T03:28:47;2.97;;;1.92;;
21562;SDS011;10942;47.894;11.424;2024-03-23T03:31:17;3.90;;;1.90;;
21562;SDS011;10942;47.894;11.424;2024-03-23T03:33:43;5.20;;;2.92;;
21562;SDS011;10942;47.894;11.424;2024-03-23T03:36:10;5.10;;;2.45;;
21562;SDS011;10942;47.894;11.424;2024-03-23T03:38:36;9.82;;;5.32;;
21562;SDS011;10942;47.894;11.424;2024-03-23T03:41:03;3.22;;;2.10;;
21562;SDS011;10942;47.894;11.424;2024-03-23T03:43:31;7.10;;;3.72;;
21562;SDS011;10942;47.894;11.424;2024-03-23T03:45:58;6.15;;;3.28;;
21562;SDS011;10942;47.894;11.424;2024-03-23T03:48:25;4.13;;;2.42;;
21562;SDS011;10942;47.894;11.424;2024-03-23T03:50:51;5.30;;;2.30;;
21562;SDS011;10942;47.894;11.424;2024-03-23T03:53:17;4.78;;;2.70;;
21562;SDS011;10942;47.894;11.424;2024-03-23T03:55:44;6.07;;;3.38;;
21562;SDS011;10942;47.894;11.424;2024-03-23T03:58:10;4.07;;;2.33;;
21562;SDS011;10942;47.894;11.424;2024-03-23T04:00:36;8.05;;;4.45;;
21562;SDS011;10942;47.894;11.424;2024-03-23T04:03:02;5.20;;;3.03;;
21562;SDS011;10942;47.894;11.424;2024-03-23T04:05:28;4.60;;;2.58;;
21562;SDS011;10942;47.894;11.424;2024-03-23T04:07:54;5.32;;;2.80;;
21562;SDS011;10942;47.894;11.424;2024-03-23T04:10:20;3.92;;;2.22;;
21562;SDS011;10942;47.894;11.424;2024-03-23T04:12:46;4.22;;;2.63;;
21562;SDS011;10942;47.894;11.424;2024-03-23T04:15:13;4.47;;;2.45;;
21562;SDS011;10942;47.894;11.424;2024-03-23T04:17:39;3.97;;;2.17;;
21562;SDS011;10942;47.894;11.424;2024-03-23T04:20:07;5.18;;;2.70;;
21562;SDS011;10942;47.894;11.424;2024-03-23T04:22:36;4.95;;;2.63;;
21562;SDS011;10942;47.894;11.424;2024-03-23T04:25:02;3.65;;;2.03;;
21562;SDS011;10942;47.894;11.424;2024-03-23T04:27:35;3.30;;;1.88;;
21562;SDS011;10942;47.894;11.424;2024-03-23T04:30:01;5.22;;;2.72;;
21562;SDS011;10942;47.894;11.424;2024-03-23T04:32:28;6.55;;;3.13;;
21562;SDS011;10942;47.894;11.424;2024-03-23T04:34:54;3.10;;;1.80;;
21562;SDS011;10942;47.894;11.424;2024-03-23T04:37:22;4.43;;;2.10;;
21562;SDS011;10942;47.894;11.424;2024-03-23T04:39:48;7.13;;;2.55;;
21562;SDS011;10942;47.894;11.424;2024-03-23T04:42:15;7.10;;;3.47;;
21562;SDS011;10942;47.894;11.424;2024-03-23T04:44:41;6.65;;;2.90;;
21562;SDS011;10942;47.894;11.424;2024-03-23T04:47:07;3.97;;;1.85;;
21562;SDS011;10942;47.894;11.424;2024-03-23T04:49:33;3.88;;;2.38;;
21562;SDS011;10942;47.894;11.424;2024-03-23T04:52:04;6.38;;;2.35;;
21562;SDS011;10942;47.894;11.424;2024-03-23T04:54:30;3.53;;;2.00;;
21562;SDS011;10942;47.894;11.424;2024-03-23T04:56:57;5.90;;;2.60;;
21562;SDS011;10942;47.894;11.424;2024-03-23T04:59:23;3.58;;;1.90;;
21562;SDS011;10942;47.894;11.424;2024-03-23T05:01:49;6.68;;;3.58;;
21562;SDS011;10942;47.894;11.424;2024-03-23T05:04:15;5.22;;;2.42;;
21562;SDS011;10942;47.894;11.424;2024-03-23T05:06:41;3.17;;;1.90;;
21562;SDS011;10942;47.894;11.424;2024-03-23T05:09:06;8.07;;;3.50;;
21562;SDS011;10942;47.894;11.424;2024-03-23T05:11:36;5.65;;;3.00;;
21562;SDS011;10942;47.894;11.424;2024-03-23T05:14:01;4.43;;;2.40;;
21562;SDS011;10942;47.894;11.424;2024-03-23T05:16:28;3.85;;;2.00;;
21562;SDS011;10942;47.894;11.424;2024-03-23T05:18:54;3.88;;;1.98;;
21562;SDS011;10942;47.894;11.424;2024-03-23T05:21:19;3.83;;;1.77;;
21562;SDS011;10942;47.894;11.424;2024-03-23T05:23:45;3.50;;;1.80;;
21562;SDS011;10942;47.894;11.424;2024-03-23T05:26:11;3.40;;;1.70;;
21562;SDS011;10942;47.894;11.424;2024-03-23T05:28:36;3.90;;;1.95;;
21562;SDS011;10942;47.894;11.424;2024-03-23T05:31:02;3.50;;;2.00;;
21562;SDS011;10942;47.894;11.424;2024-03-23T05:33:28;3.08;;;1.75;;
21562;SDS011;10942;47.894;11.424;2024-03-23T05:35:57;4.22;;;2.00;;
21562;SDS011;10942;47.894;11.424;2024-03-23T05:38:24;5.05;;;2.67;;
21562;SDS011;10942;47.894;11.424;2024-03-23T05:40:56;4.38;;;2.70;;
21562;SDS011;10942;47.894;11.424;2024-03-23T05:43:22;4.25;;;1.90;;
21562;SDS011;10942;47.894;11.424;2024-03-23T05:45:54;3.72;;;2.00;;
21562;SDS011;10942;47.894;11.424;2024-03-23T05:48:21;4.45;;;2.40;;
21562;SDS011;10942;47.894;11.424;2024-03-23T05:50:50;5.07;;;2.40;;
21562;SDS011;10942;47.894;11.424;2024-03-23T05:53:16;4.32;;;2.42;;
21562;SDS011;10942;47.894;11.424;2024-03-23T05:55:43;4.05;;;2.13;;
21562;SDS011;10942;47.894;11.424;2024-03-23T05:58:09;3.75;;;2.03;;
21562;SDS011;10942;47.894;11.424;2024-03-23T06:00:35;4.60;;;2.28;;
21562;SDS011;10942;47.894;11.424;2024-03-23T06:03:01;14.00;;;8.32;;
21562;SDS011;10942;47.894;11.424;2024-03-23T06:05:27;10.20;;;6.32;;
21562;SDS011;10942;47.894;11.424;2024-03-23T06:07:53;6.43;;;3.05;;
21562;SDS011;10942;47.894;11.424;2024-03-23T06:10:19;8.40;;;4.90;;
21562;SDS011;10942;47.894;11.424;2024-03-23T06:12:48;10.15;;;6.53;;
21562;SDS011;10942;47.894;11.424;2024-03-23T06:15:17;8.75;;;4.30;;
21562;SDS011;10942;47.894;11.424;2024-03-23T06:17:43;8.73;;;5.85;;
21562;SDS011;10942;47.894;11.424;2024-03-23T06:20:09;12.77;;;8.32;;
21562;SDS011;10942;47.894;11.424;2024-03-23T06:22:35;6.07;;;3.83;;
21562;SDS011;10942;47.894;11.424;2024-03-23T06:25:01;6.13;;;3.35;;
21562;SDS011;10942;47.894;11.424;2024-03-23T06:27:28;5.03;;;2.63;;
21562;SDS011;10942;47.894;11.424;2024-03-23T06:29:54;6.68;;;3.60;;
21562;SDS011;10942;47.894;11.424;2024-03-23T06:32:20;8.07;;;2.70;;
21562;SDS011;10942;47.894;11.424;2024-03-23T06:34:46;4.30;;;2.30;;
21562;SDS011;10942;47.894;11.424;2024-03-23T06:37:12;6.63;;;2.95;;
21562;SDS011;10942;47.894;11.424;2024-03-23T06:39:38;2.72;;;1.85;;
21562;SDS011;10942;47.894;11.424;2024-03-23T06:42:04;3.65;;;1.80;;
21562;SDS011;10942;47.894;11.424;2024-03-23T06:44:30;5.10;;;2.47;;
21562;SDS011;10942;47.894;11.424;2024-03-23T06:46:57;5.85;;;3.05;;
21562;SDS011;10942;47.894;11.424;2024-03-23T06:49:23;3.55;;;1.63;;
21562;SDS011;10942;47.894;11.424;2024-03-23T06:51:49;4.85;;;1.45;;
21562;SDS011;10942;47.894;11.424;2024-03-23T06:54:14;2.67;;;1.55;;
21562;SDS011;10942;47.894;11.424;2024-03-23T06:56:44;5.40;;;2.25;;
21562;SDS011;10942;47.894;11.424;2024-03-23T06:59:10;6.55;;;1.85;;
21562;SDS011;10942;47.894;11.424;2024-03-23T07:01:36;3.70;;;2.20;;
21562;SDS011;10942;47.894;11.424;2024-03-23T07:04:02;8.43;;;3.88;;
21562;SDS011;10942;47.894;11.424;2024-03-23T07:06:29;4.82;;;2.60;;
21562;SDS011;10942;47.894;11.424;2024-03-23T07:08:55;5.03;;;2.70;;
21562;SDS011;10942;47.894;11.424;2024-03-23T07:11:22;4.60;;;2.22;;
21562;SDS011;10942;47.894;11.424;2024-03-23T07:13:51;3.50;;;2.05;;
21562;SDS011;10942;47.894;11.424;2024-03-23T07:16:19;3.45;;;1.75;;
21562;SDS011;10942;47.894;11.424;2024-03-23T07:18:45;3.13;;;1.60;;
21562;SDS011;10942;47.894;11.424;2024-03-23T07:21:11;3.03;;;1.60;;
21562;SDS011;10942;47.894;11.424;2024-03-23T07:23:37;2.67;;;1.40;;
21562;SDS011;10942;47.894;11.424;2024-03-23T07:26:05;3.35;;;1.70;;
21562;SDS011;10942;47.894;11.424;2024-03-23T07:28:34;3.85;;;1.50;;
21562;SDS011;10942;47.894;11.424;2024-03-23T07:31:04;3.42;;;1.00;;
21562;SDS011;10942;47.894;11.424;2024-03-23T07:33:32;2.45;;;1.30;;
21562;SDS011;10942;47.894;11.424;2024-03-23T07:35:58;1.88;;;1.30;;
21562;SDS011;10942;47.894;11.424;2024-03-23T07:38:27;3.75;;;1.90;;
21562;SDS011;10942;47.894;11.424;2024-03-23T07:41:06;4.97;;;2.10;;
21562;SDS011;10942;47.894;11.424;2024-03-23T07:43:32;3.13;;;1.42;;
21562;SDS011;10942;47.894;11.424;2024-03-23T07:45:59;2.78;;;1.27;;
21562;SDS011;10942;47.894;11.424;2024-03-23T07:48:26;6.03;;;2.92;;
21562;SDS011;10942;47.894;11.424;2024-03-23T07:51:10;2.25;;;1.13;;
21562;SDS011;10942;47.894;11.424;2024-03-23T07:53:37;4.10;;;1.25;;
21562;SDS011;10942;47.894;11.424;2024-03-23T07:56:05;4.72;;;2.10;;
21562;SDS011;10942;47.894;11.424;2024-03-23T07:58:32;2.92;;;1.35;;
21562;SDS011;10942;47.894;11.424;2024-03-23T08:01:04;2.08;;;1.20;;
21562;SDS011;10942;47.894;11.424;2024-03-23T08:03:33;5.97;;;1.48;;
21562;SDS011;10942;47.894;11.424;2024-03-23T08:06:06;4.15;;;1.52;;
21562;SDS011;10942;47.894;11.424;2024-03-23T08:08:32;3.70;;;1.92;;
21562;SDS011;10942;47.894;11.424;2024-03-23T08:10:58;4.13;;;1.67;;
21562;SDS011;10942;47.894;11.424;2024-03-23T08:13:24;4.60;;;1.20;;
21562;SDS011;10942;47.894;11.424;2024-03-23T08:15:50;2.00;;;1.00;;
21562;SDS011;10942;47.894;11.424;2024-03-23T08:18:16;1.52;;;1.00;;
21562;SDS011;10942;47.894;11.424;2024-03-23T08:20:42;2.17;;;0.80;;
21562;SDS011;10942;47.894;11.424;2024-03-23T08:23:08;2.85;;;0.55;;
21562;SDS011;10942;47.894;11.424;2024-03-23T08:25:34;2.03;;;0.60;;
21562;SDS011;10942;47.894;11.424;2024-03-23T08:28:01;1.23;;;0.65;;
21562;SDS011;10942;47.894;11.424;2024-03-23T08:30:27;2.50;;;0.43;;
21562;SDS011;10942;47.894;11.424;2024-03-23T08:32:54;2.33;;;0.60;;
21562;SDS011;10942;47.894;11.424;2024-03-23T08:35:20;0.93;;;0.40;;
21562;SDS011;10942;47.894;11.424;2024-03-23T08:37:46;1.38;;;0.68;;
21562;SDS011;10942;47.894;11.424;2024-03-23T08:40:12;1.77;;;0.70;;
21562;SDS011;10942;47.894;11.424;2024-03-23T08:42:38;1.38;;;0.73;;
21562;SDS011;10942;47.894;11.424;2024-03-23T08:45:04;1.50;;;0.85;;
21562;SDS011;10942;47.894;11.424;2024-03-23T08:47:34;1.73;;;0.50;;
21562;SDS011;10942;47.894;11.424;2024-03-23T08:50:00;2.67;;;0.60;;
21562;SDS011;10942;47.894;11.424;2024-03-23T08:52:26;2.88;;;0.68;;
21562;SDS011;10942;47.894;11.424;2024-03-23T08:54:54;1.80;;;0.88;;
21562;SDS011;10942;47.894;11.424;2024-03-23T08:57:21;3.38;;;0.90;;
21562;SDS011;10942;47.894;11.424;2024-03-23T08:59:47;1.50;;;0.77;;
21562;SDS011;10942;47.894;11.424;2024-03-23T09:02:13;1.58;;;0.93;;
21562;SDS011;10942;47.894;11.424;2024-03-23T09:04:40;1.40;;;1.00;;
21562;SDS011;10942;47.894;11.424;2024-03-23T09:07:06;2.70;;;0.90;;
21562;SDS011;10942;47.894;11.424;2024-03-23T09:09:32;2.42;;;1.05;;
21562;SDS011;10942;47.894;11.424;2024-03-23T09:11:58;2.10;;;1.10;;
21562;SDS011;10942;47.894;11.424;2024-03-23T09:14:24;3.38;;;1.70;;
21562;SDS011;10942;47.894;11.424;2024-03-23T09:16:50;2.92;;;1.20;;
21562;SDS011;10942;47.894;11.424;2024-03-23T09:19:17;2.90;;;1.10;;
21562;SDS011;10942;47.894;11.424;2024-03-23T09:21:43;2.38;;;1.20;;
21562;SDS011;10942;47.894;11.424;2024-03-23T09:24:09;4.72;;;1.30;;
21562;SDS011;10942;47.894;11.424;2024-03-23T09:26:35;3.05;;;1.23;;
21562;SDS011;10942;47.894;11.424;2024-03-23T09:29:01;1.60;;;0.95;;
21562;SDS011;10942;47.894;11.424;2024-03-23T09:31:27;5.13;;;2.47;;
21562;SDS011;10942;47.894;11.424;2024-03-23T09:33:53;5.50;;;1.80;;
21562;SDS011;10942;47.894;11.424;2024-03-23T09:36:19;1.95;;;1.50;;
21562;SDS011;10942;47.894;11.424;2024-03-23T09:38:46;2.90;;;1.45;;
21562;SDS011;10942;47.894;11.424;2024-03-23T09:41:12;3.75;;;1.70;;
21562;SDS011;10942;47.894;11.424;2024-03-23T09:43:40;2.97;;;1.50;;
21562;SDS011;10942;47.894;11.424;2024-03-23T09:46:06;3.35;;;1.33;;
21562;SDS011;10942;47.894;11.424;2024-03-23T09:48:33;5.28;;;2.67;;
21562;SDS011;10942;47.894;11.424;2024-03-23T09:51:00;3.85;;;1.98;;
21562;SDS011;10942;47.894;11.424;2024-03-23T09:53:26;3.60;;;0.82;;
21562;SDS011;10942;47.894;11.424;2024-03-23T09:55:52;1.20;;;0.70;;
21562;SDS011;10942;47.894;11.424;2024-03-23T09:58:18;1.98;;;0.90;;
21562;SDS011;10942;47.894;11.424;2024-03-23T10:00:44;1.40;;;0.68;;
21562;SDS011;10942;47.894;11.424;2024-03-23T10:03:10;1.33;;;0.50;;
21562;SDS011;10942;47.894;11.424;2024-03-23T10:05:36;1.20;;;0.60;;
21562;SDS011;10942;47.894;11.424;2024-03-23T10:10:41;1.13;;;0.60;;
21562;SDS011;10942;47.894;11.424;2024-03-23T10:13:07;1.38;;;1.13;;
21562;SDS011;10942;47.894;11.424;2024-03-23T10:15:34;3.72;;;1.63;;
21562;SDS011;10942;47.894;11.424;2024-03-23T10:20:41;2.53;;;1.53;;
21562;SDS011;10942;47.894;11.424;2024-03-23T10:23:18;2.05;;;0.98;;
21562;SDS011;10942;47.894;11.424;2024-03-23T10:25:44;2.75;;;1.10;;
21562;SDS011;10942;47.894;11.424;2024-03-23T10:28:11;3.00;;;1.45;;
21562;SDS011;10942;47.894;11.424;2024-03-23T10:30:37;3.65;;;0.85;;
21562;SDS011;10942;47.894;11.424;2024-03-23T10:33:07;1.50;;;0.70;;
21562;SDS011;10942;47.894;11.424;2024-03-23T10:35:33;2.97;;;1.10;;
21562;SDS011;10942;47.894;11.424;2024-03-23T10:38:00;2.72;;;0.90;;
21562;SDS011;10942;47.894;11.424;2024-03-23T10:40:26;2.42;;;1.27;;
21562;SDS011;10942;47.894;11.424;2024-03-23T10:42:53;6.93;;;2.80;;
21562;SDS011;10942;47.894;11.424;2024-03-23T10:45:23;3.47;;;1.33;;
21562;SDS011;10942;47.894;11.424;2024-03-23T10:47:49;2.67;;;1.13;;
21562;SDS011;10942;47.894;11.424;2024-03-23T10:50:15;5.80;;;1.60;;
21562;SDS011;10942;47.894;11.424;2024-03-23T10:52:42;4.43;;;1.95;;
21562;SDS011;10942;47.894;11.424;2024-03-23T10:55:11;7.75;;;4.47;;
21562;SDS011;10942;47.894;11.424;2024-03-23T10:57:45;3.95;;;1.90;;
21562;SDS011;10942;47.894;11.424;2024-03-23T11:00:13;1.48;;;0.77;;
21562;SDS011;10942;47.894;11.424;2024-03-23T11:02:40;1.23;;;0.50;;
21562;SDS011;10942;47.894;11.424;2024-03-23T11:07:50;0.60;;;0.40;;
21562;SDS011;10942;47.894;11.424;2024-03-23T11:10:27;1.33;;;0.47;;
21562;SDS011;10942;47.894;11.424;2024-03-23T11:12:54;1.48;;;0.60;;
21562;SDS011;10942;47.894;11.424;2024-03-23T11:15:20;1.17;;;0.70;;
21562;SDS011;10942;47.894;11.424;2024-03-23T11:18:07;1.77;;;0.90;;
21562;SDS011;10942;47.894;11.424;2024-03-23T11:20:34;2.10;;;0.90;;
21562;SDS011;10942;47.894;11.424;2024-03-23T11:23:01;1.35;;;0.57;;
21562;SDS011;10942;47.894;11.424;2024-03-23T11:25:27;3.30;;;1.65;;
21562;SDS011;10942;47.894;11.424;2024-03-23T11:27:54;6.07;;;1.73;;
21562;SDS011;10942;47.894;11.424;2024-03-23T11:30:25;2.08;;;0.80;;
21562;SDS011;10942;47.894;11.424;2024-03-23T11:32:52;1.98;;;0.80;;
21562;SDS011;10942;47.894;11.424;2024-03-23T11:35:28;2.45;;;0.88;;
21562;SDS011;10942;47.894;11.424;2024-03-23T11:38:02;1.83;;;0.90;;
21562;SDS011;10942;47.894;11.424;2024-03-23T11:40:28;5.72;;;2.00;;
21562;SDS011;10942;47.894;11.424;2024-03-23T11:42:59;3.95;;;2.25;;
21562;SDS011;10942;47.894;11.424;2024-03-23T11:45:26;2.85;;;1.17;;
21562;SDS011;10942;47.894;11.424;2024-03-23T11:48:05;2.33;;;0.80;;
21562;SDS011;10942;47.894;11.424;2024-03-23T11:50:31;3.33;;;1.30;;
21562;SDS011;10942;47.894;11.424;2024-03-23T11:55:39;1.90;;;0.77;;
21562;SDS011;10942;47.894;11.424;2024-03-23T11:58:05;2.83;;;1.00;;
21562;SDS011;10942;47.894;11.424;2024-03-23T12:00:31;2.80;;;0.90;;
21562;SDS011;10942;47.894;11.424;2024-03-23T12:03:01;3.63;;;1.08;;
21562;SDS011;10942;47.894;11.424;2024-03-23T12:05:28;3.85;;;1.40;;
21562;SDS011;10942;47.894;11.424;2024-03-23T12:07:54;2.60;;;1.02;;
21562;SDS011;10942;47.894;11.424;2024-03-23T12:10:21;3.47;;;1.00;;
21562;SDS011;10942;47.894;11.424;2024-03-23T12:12:58;2.63;;;1.23;;
21562;SDS011;10942;47.894;11.424;2024-03-23T12:15:25;3.83;;;1.70;;
21562;SDS011;10942;47.894;11.424;2024-03-23T12:17:51;2.00;;;0.90;;
21562;SDS011;10942;47.894;11.424;2024-03-23T12:20:17;2.92;;;0.88;;
21562;SDS011;10942;47.894;11.424;2024-03-23T12:22:43;2.50;;;0.95;;
21562;SDS011;10942;47.894;11.424;2024-03-23T12:25:10;1.45;;;0.70;;
21562;SDS011;10942;47.894;11.424;2024-03-23T12:27:36;2.33;;;0.98;;
21562;SDS011;10942;47.894;11.424;2024-03-23T12:30:03;4.30;;;1.90;;
21562;SDS011;10942;47.894;11.424;2024-03-23T12:32:29;2.25;;;1.02;;
21562;SDS011;10942;47.894;11.424;2024-03-23T12:34:55;2.55;;;1.08;;
21562;SDS011;10942;47.894;11.424;2024-03-23T12:37:21;4.85;;;1.65;;
21562;SDS011;10942;47.894;11.424;2024-03-23T12:39:47;2.45;;;0.82;;
21562;SDS011;10942;47.894;11.424;2024-03-23T12:42:13;1.80;;;0.90;;
21562;SDS011;10942;47.894;11.424;2024-03-23T12:44:40;1.58;;;0.60;;
21562;SDS011;10942;47.894;11.424;2024-03-23T12:47:06;1.67;;;0.90;;
21562;SDS011;10942;47.894;11.424;2024-03-23T12:49:32;1.27;;;0.60;;
21562;SDS011;10942;47.894;11.424;2024-03-23T12:51:58;2.13;;;0.90;;
21562;SDS011;10942;47.894;11.424;2024-03-23T12:54:25;4.05;;;1.50;;
21562;SDS011;10942;47.894;11.424;2024-03-23T12:56:51;2.05;;;0.68;;
21562;SDS011;10942;47.894;11.424;2024-03-23T12:59:17;1.25;;;0.60;;
21562;SDS011;10942;47.894;11.424;2024-03-23T13:01:43;3.28;;;1.00;;
21562;SDS011;10942;47.894;11.424;2024-03-23T13:04:10;4.32;;;2.40;;
21562;SDS011;10942;47.894;11.424;2024-03-23T13:06:36;4.47;;;1.55;;
21562;SDS011;10942;47.894;11.424;2024-03-23T13:09:02;4.60;;;1.90;;
21562;SDS011;10942;47.894;11.424;2024-03-23T13:11:28;1.27;;;0.70;;
21562;SDS011;10942;47.894;11.424;2024-03-23T13:13:54;2.97;;;0.65;;
21562;SDS011;10942;47.894;11.424;2024-03-23T13:16:20;3.05;;;1.40;;
21562;SDS011;10942;47.894;11.424;2024-03-23T13:18:47;2.05;;;0.98;;
21562;SDS011;10942;47.894;11.424;2024-03-23T13:21:13;1.63;;;0.90;;
21562;SDS011;10942;47.894;11.424;2024-03-23T13:23:39;2.92;;;1.10;;
21562;SDS011;10942;47.894;11.424;2024-03-23T13:26:07;2.00;;;1.05;;
21562;SDS011;10942;47.894;11.424;2024-03-23T13:28:33;1.77;;;0.95;;
21562;SDS011;10942;47.894;11.424;2024-03-23T13:31:01;3.10;;;1.55;;
21562;SDS011;10942;47.894;11.424;2024-03-23T13:33:30;2.25;;;1.15;;
21562;SDS011;10942;47.894;11.424;2024-03-23T13:35:59;5.20;;;1.08;;
21562;SDS011;10942;47.894;11.424;2024-03-23T13:38:25;4.65;;;1.00;;
21562;SDS011;10942;47.894;11.424;2024-03-23T13:40:55;3.20;;;1.42;;
21562;SDS011;10942;47.894;11.424;2024-03-23T13:43:22;5.15;;;2.10;;
21562;SDS011;10942;47.894;11.424;2024-03-23T13:45:48;2.05;;;1.17;;
21562;SDS011;10942;47.894;11.424;2024-03-23T13:48:15;4.28;;;1.80;;
21562;SDS011;10942;47.894;11.424;2024-03-23T13:50:41;2.90;;;1.70;;
21562;SDS011;10942;47.894;11.424;2024-03-23T13:53:07;2.83;;;1.25;;
21562;SDS011;10942;47.894;11.424;2024-03-23T13:55:34;3.67;;;1.35;;
21562;SDS011;10942;47.894;11.424;2024-03-23T13:58:00;2.72;;;1.30;;
21562;SDS011;10942;47.894;11.424;2024-03-23T14:00:27;3.22;;;1.20;;
21562;SDS011;10942;47.894;11.424;2024-03-23T14:02:53;1.70;;;0.90;;
21562;SDS011;10942;47.894;11.424;2024-03-23T14:05:19;4.22;;;1.67;;
21562;SDS011;10942;47.894;11.424;2024-03-23T14:07:45;4.60;;;1.85;;
21562;SDS011;10942;47.894;11.424;2024-03-23T14:10:11;3.90;;;1.00;;
21562;SDS011;10942;47.894;11.424;2024-03-23T14:12:38;4.35;;;1.95;;
21562;SDS011;10942;47.894;11.424;2024-03-23T14:15:07;5.93;;;1.88;;
21562;SDS011;10942;47.894;11.424;2024-03-23T14:17:34;7.93;;;2.60;;
21562;SDS011;10942;47.894;11.424;2024-03-23T14:20:00;7.50;;;2.30;;
21562;SDS011;10942;47.894;11.424;2024-03-23T14:22:27;6.25;;;1.88;;
21562;SDS011;10942;47.894;11.424;2024-03-23T14:24:53;4.50;;;1.25;;
21562;SDS011;10942;47.894;11.424;2024-03-23T14:27:19;6.35;;;2.42;;
21562;SDS011;10942;47.894;11.424;2024-03-23T14:29:48;6.15;;;2.72;;
21562;SDS011;10942;47.894;11.424;2024-03-23T14:32:14;8.98;;;3.53;;
21562;SDS011;10942;47.894;11.424;2024-03-23T14:34:40;7.10;;;2.25;;
21562;SDS011;10942;47.894;11.424;2024-03-23T14:37:06;3.97;;;1.75;;
21562;SDS011;10942;47.894;11.424;2024-03-23T14:39:32;3.65;;;1.42;;
21562;SDS011;10942;47.894;11.424;2024-03-23T14:42:02;7.07;;;2.63;;
21562;SDS011;10942;47.894;11.424;2024-03-23T14:44:28;2.63;;;1.65;;
21562;SDS011;10942;47.894;11.424;2024-03-23T14:46:54;4.60;;;1.65;;
21562;SDS011;10942;47.894;11.424;2024-03-23T14:49:21;3.13;;;1.80;;
21562;SDS011;10942;47.894;11.424;2024-03-23T14:51:47;5.68;;;1.80;;
21562;SDS011;10942;47.894;11.424;2024-03-23T14:54:13;6.35;;;2.08;;
21562;SDS011;10942;47.894;11.424;2024-03-23T14:56:39;3.92;;;1.73;;
21562;SDS011;10942;47.894;11.424;2024-03-23T14:59:05;3.65;;;1.67;;
21562;SDS011;10942;47.894;11.424;2024-03-23T15:01:32;5.47;;;2.10;;
21562;SDS011;10942;47.894;11.424;2024-03-23T15:03:58;6.05;;;1.80;;
21562;SDS011;10942;47.894;11.424;2024-03-23T15:06:23;4.15;;;1.75;;
21562;SDS011;10942;47.894;11.424;2024-03-23T15:08:49;7.03;;;2.60;;
21562;SDS011;10942;47.894;11.424;2024-03-23T15:11:15;7.38;;;3.55;;
21562;SDS011;10942;47.894;11.424;2024-03-23T15:13:44;7.85;;;3.45;;
21562;SDS011;10942;47.894;11.424;2024-03-23T15:16:10;12.07;;;5.63;;
21562;SDS011;10942;47.894;11.424;2024-03-23T15:18:36;7.88;;;3.80;;
21562;SDS011;10942;47.894;11.424;2024-03-23T15:21:02;8.70;;;2.75;;
21562;SDS011;10942;47.894;11.424;2024-03-23T15:23:32;9.95;;;4.47;;
21562;SDS011;10942;47.894;11.424;2024-03-23T15:25:59;9.88;;;4.90;;
21562;SDS011;10942;47.894;11.424;2024-03-23T15:28:27;7.28;;;3.45;;
21562;SDS011;10942;47.894;11.424;2024-03-23T15:31:13;12.05;;;6.60;;
21562;SDS011;10942;47.894;11.424;2024-03-23T15:33:39;6.80;;;2.95;;
21562;SDS011;10942;47.894;11.424;2024-03-23T15:36:05;6.38;;;2.55;;